Time;durP1;ratioP1;P1;durP2;ratioP2;P2;SDS_P1;SDS_P2;PMS_P1;PMS_P2;Temp;Humidity;BMP_temperature;BMP_pressure;BME280_temperature;BME280_humidity;BME280_pressure;Samples;Min_cycle;Max_cycle;Signal;HPM_P1;HPM_P2
2021/01/28 00:01:12;;;;;;;25.38;16.40;;;;;;;2.87;94.57;100126.06;4945156;29;20055;-83
2021/01/28 00:03:39;;;;;;;21.88;15.25;;;;;;;2.90;95.09;100128.63;4957135;29;20062;-82
2021/01/28 00:06:08;;;;;;;20.63;15.00;;;;;;;2.94;94.74;100125.06;4954097;29;20130;-84
2021/01/28 00:08:35;;;;;;;23.77;15.73;;;;;;;2.88;94.55;100117.34;4951957;29;20053;-82
2021/01/28 00:11:04;;;;;;;23.40;16.75;;;;;;;2.84;94.67;100097.38;4959508;29;20039;-81
2021/01/28 00:13:31;;;;;;;24.42;16.27;;;;;;;2.83;94.86;100108.75;4938897;29;20051;-83
2021/01/28 00:16:00;;;;;;;23.08;15.95;;;;;;;2.88;94.89;100113.88;4950154;28;20052;-84
2021/01/28 00:18:27;;;;;;;25.67;16.25;;;;;;;2.90;94.66;100102.47;4939743;29;20047;-82
2021/01/28 00:20:53;;;;;;;24.50;15.55;;;;;;;2.86;94.92;100110.41;4960511;29;20054;-82
2021/01/28 00:23:20;;;;;;;25.45;16.45;;;;;;;2.80;94.89;100093.13;4961031;28;20062;-84
2021/01/28 00:25:48;;;;;;;23.77;16.27;;;;;;;2.85;95.10;100106.06;4964927;28;20035;-82
2021/01/28 00:28:18;;;;;;;26.23;16.70;;;;;;;2.90;95.16;100101.63;4954435;28;20099;-80
2021/01/28 00:30:47;;;;;;;26.77;17.50;;;;;;;2.88;94.92;100085.97;4956848;29;20055;-81
2021/01/28 00:33:18;;;;;;;27.80;17.73;;;;;;;2.89;94.96;100084.19;4937402;29;20100;-83
2021/01/28 00:35:47;;;;;;;27.77;17.92;;;;;;;2.86;94.71;100068.56;4960129;29;20078;-82
2021/01/28 00:38:25;;;;;;;26.85;17.33;;;;;;;2.87;94.91;100065.06;4935479;29;20044;-82
2021/01/28 00:40:54;;;;;;;29.23;18.17;;;;;;;2.82;94.67;100054.72;4959700;29;20075;-83
2021/01/28 00:43:22;;;;;;;28.63;18.45;;;;;;;2.83;94.86;100056.44;4951875;29;20056;-84
2021/01/28 00:45:49;;;;;;;28.00;18.08;;;;;;;2.85;95.59;100062.47;4957609;29;20036;-84
2021/01/28 00:48:18;;;;;;;27.83;18.20;;;;;;;2.86;95.63;100056.34;4947323;29;20052;-82
2021/01/28 00:50:47;;;;;;;27.80;17.92;;;;;;;2.94;95.21;100067.53;4931520;29;20059;-82
2021/01/28 00:53:16;;;;;;;30.45;19.48;;;;;;;2.92;95.17;100051.00;4946520;29;20043;-82
2021/01/28 00:55:44;;;;;;;29.48;18.52;;;;;;;2.89;95.06;100064.16;4945899;29;20052;-83
2021/01/28 00:58:12;;;;;;;30.85;19.13;;;;;;;2.84;94.90;100063.38;4926483;29;20055;-83
2021/01/28 01:00:41;;;;;;;29.33;18.08;;;;;;;2.86;94.87;100063.34;4927671;29;20079;-84
2021/01/28 01:03:09;;;;;;;29.58;19.27;;;;;;;2.85;95.08;100057.25;4951385;29;20079;-83
2021/01/28 01:05:38;;;;;;;31.35;19.55;;;;;;;2.92;94.99;100058.84;4949155;29;20099;-83
2021/01/28 01:08:27;;;;;;;32.35;19.63;;;;;;;2.91;94.99;100054.53;4953459;29;20048;-82
2021/01/28 01:11:08;;;;;;;30.05;19.08;;;;;;;2.94;94.74;100054.47;4952795;29;20066;-85
2021/01/28 01:13:38;;;;;;;29.67;18.50;;;;;;;2.94;95.16;100057.06;4926184;29;20094;-83
2021/01/28 01:16:08;;;;;;;31.85;20.55;;;;;;;2.87;94.44;100055.47;4955615;29;20055;-84
2021/01/28 01:18:37;;;;;;;31.02;19.50;;;;;;;2.88;95.27;100069.41;4956327;29;20044;-84
2021/01/28 01:21:06;;;;;;;29.52;19.25;;;;;;;2.93;95.04;100059.72;4942131;29;20133;-83
2021/01/28 01:23:34;;;;;;;33.83;20.30;;;;;;;2.96;94.78;100070.97;4956057;29;20056;-83
2021/01/28 01:26:01;;;;;;;32.10;20.88;;;;;;;2.97;94.77;100071.84;4951636;29;20047;-84
2021/01/28 01:28:29;;;;;;;32.53;20.58;;;;;;;2.98;95.10;100063.97;4954228;29;20051;-83
2021/01/28 01:30:57;;;;;;;33.72;19.85;;;;;;;3.00;94.83;100070.00;4949950;29;20076;-83
2021/01/28 01:33:24;;;;;;;32.05;20.05;;;;;;;2.97;95.05;100066.63;4951232;29;20028;-85
2021/01/28 01:35:50;;;;;;;33.47;21.33;;;;;;;2.93;95.16;100063.19;4940409;29;20043;-83
2021/01/28 01:38:18;;;;;;;33.58;21.48;;;;;;;2.88;95.37;100054.56;4934745;29;20078;-84
2021/01/28 01:40:51;;;;;;;33.72;20.30;;;;;;;2.93;95.57;100044.88;4953564;28;20031;-84
2021/01/28 01:43:18;;;;;;;34.22;21.27;;;;;;;2.93;95.74;100041.41;4957397;28;20047;-85
2021/01/28 01:45:52;;;;;;;35.38;21.45;;;;;;;2.99;95.25;100031.66;4938205;29;20075;-84
2021/01/28 01:48:23;;;;;;;33.72;20.60;;;;;;;2.99;94.96;100031.66;4952502;29;20111;-86
2021/01/28 01:50:55;;;;;;;32.50;20.80;;;;;;;3.03;94.21;100025.47;4941171;29;20048;-84
2021/01/28 01:53:24;;;;;;;31.98;20.50;;;;;;;3.02;94.34;100021.13;4936802;29;20057;-84
2021/01/28 01:56:05;;;;;;;30.23;20.17;;;;;;;2.98;95.10;100013.41;4956803;29;20055;-85
2021/01/28 01:58:43;;;;;;;32.45;20.90;;;;;;;2.93;95.27;100000.44;4951197;29;20058;-83
2021/01/28 02:01:09;;;;;;;33.00;20.17;;;;;;;2.88;94.81;99990.94;4954535;29;20075;-84
2021/01/28 02:03:38;;;;;;;32.63;20.77;;;;;;;2.88;95.26;99988.34;4956057;29;20056;-85
2021/01/28 02:06:25;;;;;;;30.65;19.90;;;;;;;2.89;94.94;99976.97;4952033;29;20059;-85
2021/01/28 02:08:54;;;;;;;33.00;20.02;;;;;;;2.93;95.45;99981.25;4954976;29;20095;-86
2021/01/28 02:11:22;;;;;;;35.65;21.75;;;;;;;2.92;95.60;99975.16;4957664;29;20051;-85
2021/01/28 02:13:51;;;;;;;32.20;20.42;;;;;;;2.92;95.35;99975.16;4956584;29;20035;-83
2021/01/28 02:16:21;;;;;;;33.38;20.33;;;;;;;2.91;95.94;99981.28;4958982;28;20152;-84
2021/01/28 02:18:47;;;;;;;33.55;20.50;;;;;;;2.91;95.79;99973.44;4970319;28;20097;-80
2021/01/28 02:21:17;;;;;;;36.38;20.85;;;;;;;2.95;95.97;99963.78;4964245;28;20048;-82
2021/01/28 02:23:52;;;;;;;29.10;19.73;;;;;;;3.02;95.87;99971.44;4960119;28;20063;-84
2021/01/28 02:26:20;;;;;;;32.85;20.45;;;;;;;3.00;95.58;99957.53;4938802;29;20032;-85
2021/01/28 02:28:47;;;;;;;32.63;20.73;;;;;;;3.05;95.79;99966.13;4952224;28;20051;-85
2021/01/28 02:31:14;;;;;;;32.80;20.90;;;;;;;3.05;95.38;99960.91;4943161;28;20062;-85
2021/01/28 02:33:46;;;;;;;31.77;20.48;;;;;;;3.05;95.92;99960.91;4944606;28;20055;-83
2021/01/28 02:36:14;;;;;;;36.10;21.52;;;;;;;3.04;95.36;99958.31;4961243;28;20047;-81
2021/01/28 02:38:40;;;;;;;34.90;20.15;;;;;;;3.06;95.21;99953.91;4957524;28;20036;-85
2021/01/28 02:41:09;;;;;;;35.75;21.23;;;;;;;3.01;95.25;99938.31;4949997;28;20056;-85
2021/01/28 02:43:37;;;;;;;33.33;21.42;;;;;;;3.02;95.08;99947.88;4960498;28;20046;-85
2021/01/28 02:46:14;;;;;;;31.20;20.60;;;;;;;3.07;95.60;99953.88;4963890;28;20035;-83
2021/01/28 02:48:40;;;;;;;32.72;21.13;;;;;;;3.10;95.29;99948.59;4959899;28;20066;-82
2021/01/28 02:51:09;;;;;;;34.47;21.23;;;;;;;3.05;94.38;99939.97;4963879;28;20047;-81
2021/01/28 02:53:45;;;;;;;31.58;19.80;;;;;;;3.15;95.15;99943.22;4958857;29;20038;-83
2021/01/28 02:56:12;;;;;;;31.40;20.05;;;;;;;3.15;94.89;99932.75;4961171;28;20047;-82
2021/01/28 02:58:38;;;;;;;32.58;20.02;;;;;;;3.15;94.44;99924.91;4958469;29;20115;-84
2021/01/28 03:01:09;;;;;;;30.75;19.70;;;;;;;3.13;94.05;99927.59;4950954;29;20044;-83
2021/01/28 03:03:37;;;;;;;30.20;19.75;;;;;;;3.17;94.97;99925.75;4955638;29;20047;-83
2021/01/28 03:06:06;;;;;;;29.17;19.20;;;;;;;3.21;94.75;99926.53;4954577;29;20062;-83
2021/01/28 03:08:33;;;;;;;29.75;20.25;;;;;;;3.18;94.82;99910.00;4939680;29;20051;-81
2021/01/28 03:11:00;;;;;;;31.65;20.17;;;;;;;3.16;94.67;99906.56;4959104;29;20059;-84
2021/01/28 03:13:27;;;;;;;30.23;19.67;;;;;;;3.22;94.45;99897.72;4964645;28;20062;-82
2021/01/28 03:15:54;;;;;;;31.77;19.30;;;;;;;3.26;94.83;99891.50;4958292;29;20039;-81
2021/01/28 03:18:21;;;;;;;29.13;19.48;;;;;;;3.30;94.12;99887.06;4937574;29;20036;-83
2021/01/28 03:20:48;;;;;;;33.15;20.20;;;;;;;3.27;94.66;99881.91;4956930;28;20036;-85
2021/01/28 03:23:15;;;;;;;30.48;19.88;;;;;;;3.25;94.56;99878.47;4959815;28;20050;-85
2021/01/28 03:25:42;;;;;;;31.20;19.67;;;;;;;3.21;94.48;99861.97;4949064;28;20050;-81
2021/01/28 03:28:10;;;;;;;30.73;19.83;;;;;;;3.25;94.12;99868.84;4957208;29;20099;-81
2021/01/28 03:30:43;;;;;;;32.38;20.77;;;;;;;3.23;94.12;99865.41;4961680;29;20057;-79
2021/01/28 03:33:14;;;;;;;32.67;20.73;;;;;;;3.24;94.11;99861.03;4938012;29;20493;-83
2021/01/28 03:35:40;;;;;;;34.40;21.63;;;;;;;3.23;94.52;99854.94;4961760;29;20104;-83
2021/01/28 03:38:09;;;;;;;32.97;21.17;;;;;;;3.19;94.70;99845.47;4960077;28;20457;-83
2021/01/28 03:40:38;;;;;;;34.65;21.02;;;;;;;3.16;95.35;99840.28;4955685;29;20027;-81
2021/01/28 03:43:05;;;;;;;36.78;22.38;;;;;;;3.14;94.51;99829.91;4953173;29;20082;-85
2021/01/28 03:45:32;;;;;;;33.85;21.45;;;;;;;3.18;95.26;99828.03;4953901;29;20046;-84
2021/01/28 03:47:59;;;;;;;35.03;21.95;;;;;;;3.24;95.61;99827.03;4951255;29;20456;-84
2021/01/28 03:50:31;;;;;;;36.95;21.95;;;;;;;3.21;94.92;99819.25;4940054;29;20068;-87
2021/01/28 03:52:57;;;;;;;39.85;21.85;;;;;;;3.31;94.72;99815.50;4954052;28;20063;-84
2021/01/28 03:55:24;;;;;;;38.08;21.67;;;;;;;3.29;94.15;99815.56;4939331;29;20103;-85
2021/01/28 03:57:52;;;;;;;37.50;22.80;;;;;;;3.21;94.48;99808.78;4940573;28;20039;-81
2021/01/28 04:00:25;;;;;;;38.38;23.08;;;;;;;3.26;94.67;99810.41;4957340;29;20055;-83
2021/01/28 04:02:51;;;;;;;39.53;24.20;;;;;;;3.28;94.63;99815.59;4947053;28;20039;-84
2021/01/28 04:05:19;;;;;;;38.72;23.02;;;;;;;3.32;94.77;99806.75;4964298;28;20048;-84
2021/01/28 04:07:46;;;;;;;41.65;23.67;;;;;;;3.28;94.37;99811.22;4960184;28;20091;-84
2021/01/28 04:10:17;;;;;;;38.95;23.40;;;;;;;3.25;94.50;99807.81;4956111;29;20027;-85
2021/01/28 04:12:43;;;;;;;42.50;24.40;;;;;;;3.24;94.57;99795.63;4957588;29;20071;-84
2021/01/28 04:15:12;;;;;;;40.72;24.80;;;;;;;3.24;95.02;99782.56;4943418;28;20036;-82
2021/01/28 04:17:39;;;;;;;42.28;24.67;;;;;;;3.24;95.00;99778.19;4942082;29;20043;-80
2021/01/28 04:20:07;;;;;;;44.03;24.83;;;;;;;3.30;95.44;99779.78;4958393;28;20036;-83
2021/01/28 04:22:34;;;;;;;43.38;25.25;;;;;;;3.31;95.37;99765.75;4941090;29;20047;-80
2021/01/28 04:25:02;;;;;;;42.00;23.63;;;;;;;3.37;94.92;99768.22;4954712;29;20052;-80
2021/01/28 04:27:31;;;;;;;42.88;25.10;;;;;;;3.34;95.06;99758.69;4956329;29;20063;-81
2021/01/28 04:29:58;;;;;;;44.20;25.63;;;;;;;3.31;94.31;99758.78;4950385;29;20028;-82
2021/01/28 04:32:24;;;;;;;43.58;25.23;;;;;;;3.26;95.10;99751.97;4933253;29;20584;-86
2021/01/28 04:34:51;;;;;;;45.30;25.50;;;;;;;3.26;94.75;99752.84;4950619;29;21366;-85
2021/01/28 04:37:18;;;;;;;44.92;25.23;;;;;;;3.27;95.23;99753.69;4950318;29;20040;-85
2021/01/28 04:39:45;;;;;;;45.75;25.70;;;;;;;3.26;95.33;99749.34;4952379;29;20044;-85
2021/01/28 04:42:20;;;;;;;46.17;24.35;;;;;;;3.29;95.30;99758.00;4931096;29;20047;-85
2021/01/28 04:44:48;;;;;;;48.17;26.27;;;;;;;3.25;95.15;99751.13;4944467;29;20051;-84
2021/01/28 04:47:18;;;;;;;49.17;26.13;;;;;;;3.30;95.13;99754.47;4946423;29;20492;-83
2021/01/28 04:50:04;;;;;;;43.28;24.98;;;;;;;3.36;95.33;99745.56;4930938;29;20031;-83
2021/01/28 04:52:39;;;;;;;41.70;23.90;;;;;;;3.37;95.27;99731.59;4930997;29;21913;-85
2021/01/28 04:55:11;;;;;;;45.33;25.77;;;;;;;3.32;95.08;99720.38;4931995;29;20058;-83
2021/01/28 04:57:37;;;;;;;48.72;25.73;;;;;;;3.31;95.64;99714.28;4950870;29;20095;-85
2021/01/28 05:00:05;;;;;;;42.72;23.75;;;;;;;3.34;95.69;99711.59;4952551;29;20056;-83
2021/01/28 05:02:32;;;;;;;41.83;23.88;;;;;;;3.34;95.25;99714.22;4948037;29;20074;-84
2021/01/28 05:05:05;;;;;;;45.45;24.80;;;;;;;3.35;96.35;99715.94;4927541;29;20075;-84
2021/01/28 05:07:34;;;;;;;47.15;25.52;;;;;;;3.39;95.90;99703.63;4937115;29;20054;-84
2021/01/28 05:10:11;;;;;;;47.78;25.67;;;;;;;3.37;95.53;99705.41;4929710;29;20055;-84
2021/01/28 05:12:38;;;;;;;44.65;25.17;;;;;;;3.35;95.79;99692.38;4949381;29;20042;-84
2021/01/28 05:15:14;;;;;;;45.58;25.35;;;;;;;3.39;96.22;99696.63;4948837;29;20060;-84
2021/01/28 05:17:41;;;;;;;44.03;24.85;;;;;;;3.41;96.42;99696.59;4951406;29;20049;-84
2021/01/28 05:20:21;;;;;;;42.03;23.55;;;;;;;3.43;96.34;99689.56;4953184;29;20048;-82
2021/01/28 05:22:58;;;;;;;46.78;24.88;;;;;;;3.40;96.26;99689.63;4952554;29;20078;-83
2021/01/28 05:25:27;;;;;;;45.13;24.33;;;;;;;3.38;96.37;99675.72;4957035;29;20136;-83
2021/01/28 05:27:53;;;;;;;41.78;23.73;;;;;;;3.39;96.51;99672.22;4938222;29;20079;-82
2021/01/28 05:30:41;;;;;;;44.25;23.85;;;;;;;3.40;96.77;99655.63;4951297;29;20064;-83
2021/01/28 05:33:35;;;;;;;45.67;24.85;;;;;;;3.42;96.48;99653.81;4930306;29;20050;-82
2021/01/28 05:36:11;;;;;;;45.97;25.00;;;;;;;3.43;96.89;99655.53;4956849;29;20059;-82
2021/01/28 05:38:48;;;;;;;44.03;24.23;;;;;;;3.45;96.73;99641.50;4933377;29;20075;-82
2021/01/28 05:41:40;;;;;;;49.00;25.42;;;;;;;3.46;96.97;99627.47;4944336;28;20106;-82
2021/01/28 05:44:28;;;;;;;46.88;25.15;;;;;;;3.49;96.84;99621.31;4933410;29;20055;-83
2021/01/28 05:47:18;;;;;;;44.55;23.65;;;;;;;3.47;97.37;99623.97;4944686;29;20044;-85
2021/01/28 05:49:46;;;;;;;44.35;23.95;;;;;;;3.44;96.53;99626.69;4931571;29;20084;-84
2021/01/28 05:52:17;;;;;;;42.65;22.95;;;;;;;3.43;96.80;99617.13;4944146;29;20452;-83
2021/01/28 05:55:06;;;;;;;44.92;24.45;;;;;;;3.42;97.10;99604.09;4948913;29;20043;-83
2021/01/28 05:57:39;;;;;;;46.50;23.92;;;;;;;3.41;97.18;99589.28;4929866;29;20059;-84
2021/01/28 06:00:35;;;;;;;44.95;22.95;;;;;;;3.43;97.59;99608.41;4939141;29;20048;-82
2021/01/28 06:03:23;;;;;;;41.13;23.30;;;;;;;3.42;97.28;99599.72;4934798;29;20058;-82
2021/01/28 06:05:59;;;;;;;41.53;22.63;;;;;;;3.43;97.47;99600.56;4935302;29;20048;-81
2021/01/28 06:08:37;;;;;;;42.28;22.45;;;;;;;3.38;97.93;99589.38;4916396;29;20158;-82
2021/01/28 06:11:32;;;;;;;45.17;22.63;;;;;;;3.38;97.47;99571.91;4930225;29;20382;-84
2021/01/28 06:14:04;;;;;;;40.42;20.58;;;;;;;3.36;97.81;99572.84;4935137;29;20126;-82
2021/01/28 06:17:21;;;;;;;36.63;20.70;;;;;;;3.36;98.30;99562.38;4933525;29;20051;-85
2021/01/28 06:20:02;;;;;;;38.00;21.05;;;;;;;3.36;97.74;99557.16;4895481;29;20051;-84
2021/01/28 06:22:47;;;;;;;38.20;20.98;;;;;;;3.36;98.07;99531.00;4916669;29;20578;-83
2021/01/28 06:25:40;;;;;;;36.28;18.75;;;;;;;3.34;98.72;99538.88;4933482;29;20058;-83
2021/01/28 06:28:13;;;;;;;34.33;19.50;;;;;;;3.35;98.84;99535.38;4923701;29;20035;-84
2021/01/28 06:30:55;;;;;;;37.65;18.92;;;;;;;3.34;98.47;99536.28;4939428;29;20047;-83
2021/01/28 06:33:29;;;;;;;33.90;18.65;;;;;;;3.37;99.13;99514.38;4938449;29;20766;-81
2021/01/28 06:36:44;;;;;;;35.08;19.55;;;;;;;3.36;99.73;99515.28;4949090;29;20048;-83
2021/01/28 06:39:28;;;;;;;36.38;19.38;;;;;;;3.36;99.40;99512.66;4863484;29;20050;-83
2021/01/28 06:42:06;;;;;;;36.30;19.17;;;;;;;3.36;99.25;99500.44;4853749;29;20046;-82
2021/01/28 06:45:02;;;;;;;34.75;19.13;;;;;;;3.37;99.78;99491.69;4916496;29;20164;-83
2021/01/28 06:47:36;;;;;;;35.30;18.25;;;;;;;3.39;99.67;99489.03;4934942;29;20059;-82
2021/01/28 06:50:24;;;;;;;34.20;18.55;;;;;;;3.42;100.00;99494.16;4913797;29;20048;-82
2021/01/28 06:52:59;;;;;;;33.53;18.67;;;;;;;3.41;99.79;99485.47;4929543;29;20051;-83
2021/01/28 06:55:35;;;;;;;34.13;17.60;;;;;;;3.40;100.00;99470.66;4926460;29;20048;-83
2021/01/28 06:58:34;;;;;;;36.45;19.40;;;;;;;3.42;100.00;99478.47;4939534;29;20063;-82
2021/01/28 07:01:09;;;;;;;36.67;18.58;;;;;;;3.43;100.00;99467.09;4942338;29;20048;-84
2021/01/28 07:04:04;;;;;;;36.55;18.80;;;;;;;3.47;100.00;99452.97;4949732;29;20051;-83
2021/01/28 07:06:55;;;;;;;38.92;19.02;;;;;;;3.48;100.00;99445.06;4950623;29;20123;-83
2021/01/28 07:09:37;;;;;;;36.17;17.90;;;;;;;3.51;100.00;99446.75;4951108;29;20048;-83
2021/01/28 07:12:06;;;;;;;34.60;17.27;;;;;;;3.51;100.00;99438.88;4954576;29;20058;-84
2021/01/28 07:14:33;;;;;;;35.57;18.70;;;;;;;3.50;100.00;99435.41;4936599;29;20135;-83
2021/01/28 07:17:11;;;;;;;36.53;18.88;;;;;;;3.52;100.00;99440.59;4937371;29;20480;-84
2021/01/28 07:19:49;;;;;;;33.55;17.23;;;;;;;3.50;100.00;99442.41;4957083;29;20044;-83
2021/01/28 07:22:39;;;;;;;32.83;17.42;;;;;;;3.51;100.00;99436.28;4940366;29;20051;-82
2021/01/28 07:25:33;;;;;;;36.38;19.13;;;;;;;3.54;100.00;99423.09;4938009;29;20058;-84
2021/01/28 07:28:23;;;;;;;38.35;18.27;;;;;;;3.58;100.00;99418.63;4947125;29;20044;-84
2021/01/28 07:31:12;;;;;;;36.33;19.17;;;;;;;3.65;100.00;99420.09;4955679;29;20063;-84
2021/01/28 07:33:48;;;;;;;33.35;17.23;;;;;;;3.67;100.00;99418.28;4954279;29;20055;-83
2021/01/28 07:36:23;;;;;;;36.92;18.20;;;;;;;3.64;100.00;99419.25;4952557;29;20130;-82
2021/01/28 07:38:54;;;;;;;35.05;17.65;;;;;;;3.63;100.00;99414.91;4922961;29;20434;-83
2021/01/28 07:41:27;;;;;;;36.63;17.70;;;;;;;3.63;100.00;99414.06;4949877;29;20055;-82
2021/01/28 07:44:15;;;;;;;33.95;17.73;;;;;;;3.62;100.00;99400.09;4949506;29;20142;-83
2021/01/28 07:46:43;;;;;;;37.30;18.15;;;;;;;3.63;100.00;99396.59;4954474;29;20040;-83
2021/01/28 07:49:19;;;;;;;32.53;16.83;;;;;;;3.63;100.00;99387.88;4942102;28;20063;-83
2021/01/28 07:51:58;;;;;;;34.70;17.95;;;;;;;3.65;100.00;99394.78;4953580;29;20429;-83
2021/01/28 07:54:27;;;;;;;35.70;18.55;;;;;;;3.67;100.00;99382.50;4954593;29;20058;-83
2021/01/28 07:56:57;;;;;;;34.00;17.33;;;;;;;3.70;100.00;99385.00;4946043;29;20055;-82
2021/01/28 07:59:38;;;;;;;36.53;18.45;;;;;;;3.72;100.00;99354.38;4946086;29;20075;-82
2021/01/28 08:02:27;;;;;;;35.03;16.80;;;;;;;3.70;100.00;99337.88;4943256;29;20129;-83
2021/01/28 08:05:06;;;;;;;29.73;16.23;;;;;;;3.69;100.00;99349.25;4931126;29;20062;-81
2021/01/28 08:07:45;;;;;;;35.47;16.83;;;;;;;3.72;100.00;99350.91;4943042;29;20564;-84
2021/01/28 08:10:34;;;;;;;27.42;15.65;;;;;;;3.74;100.00;99341.25;4931883;29;20052;-82
2021/01/28 08:13:20;;;;;;;29.17;16.15;;;;;;;3.75;100.00;99325.50;4948505;29;20086;-82
2021/01/28 08:15:55;;;;;;;27.95;15.32;;;;;;;3.75;100.00;99308.91;4942475;29;20067;-82
2021/01/28 08:18:24;;;;;;;28.65;15.30;;;;;;;3.77;100.00;99314.97;4946061;29;20044;-82
2021/01/28 08:21:22;;;;;;;26.75;14.45;;;;;;;3.82;100.00;99318.25;4940057;29;20032;-83
2021/01/28 08:23:49;;;;;;;25.23;14.80;;;;;;;3.80;100.00;99292.09;4955176;28;20067;-83
2021/01/28 08:26:40;;;;;;;27.58;14.80;;;;;;;3.82;100.00;99298.16;4938954;29;20107;-81
2021/01/28 08:29:19;;;;;;;26.75;14.60;;;;;;;3.84;100.00;99285.84;4954584;29;20048;-81
2021/01/28 08:31:54;;;;;;;26.08;14.68;;;;;;;3.82;100.00;99278.97;4943403;29;20126;-81
2021/01/28 08:34:25;;;;;;;27.52;14.95;;;;;;;3.84;100.00;99275.38;4926071;29;20055;-82
2021/01/28 08:36:57;;;;;;;27.05;15.13;;;;;;;3.85;100.00;99271.84;4930928;29;20596;-80
2021/01/28 08:39:33;;;;;;;26.98;14.43;;;;;;;3.88;100.00;99263.88;4946680;29;20098;-83
2021/01/28 08:42:11;;;;;;;26.92;14.77;;;;;;;3.93;100.00;99260.25;4924309;29;20062;-82
2021/01/28 08:44:40;;;;;;;23.10;13.95;;;;;;;3.95;100.00;99248.78;4943366;29;20059;-82
2021/01/28 08:47:18;;;;;;;21.38;12.95;;;;;;;3.95;100.00;99243.53;4924700;29;20054;-82
2021/01/28 08:49:58;;;;;;;22.23;13.52;;;;;;;3.94;100.00;99233.97;4935534;29;20445;-82
2021/01/28 08:52:26;;;;;;;26.40;13.43;;;;;;;3.96;100.00;99228.69;4942382;29;20575;-81
2021/01/28 08:54:53;;;;;;;21.17;12.90;;;;;;;3.99;100.00;99221.56;4948701;29;20055;-82
2021/01/28 08:57:24;;;;;;;23.33;13.73;;;;;;;3.99;100.00;99207.59;4933662;29;20048;-81
2021/01/28 08:59:59;;;;;;;23.40;13.48;;;;;;;4.01;100.00;99213.66;4945821;29;20052;-80
2021/01/28 09:02:33;;;;;;;23.02;13.68;;;;;;;4.03;100.00;99211.81;4927479;29;20071;-81
2021/01/28 09:05:04;;;;;;;26.30;13.93;;;;;;;4.03;100.00;99203.97;4932361;29;20048;-82
2021/01/28 09:08:01;;;;;;;24.38;12.80;;;;;;;4.04;100.00;99200.44;4937266;29;20155;-81
2021/01/28 09:10:39;;;;;;;25.10;13.98;;;;;;;4.06;100.00;99201.22;4945289;29;20051;-81
2021/01/28 09:13:23;;;;;;;24.45;14.13;;;;;;;4.07;100.00;99206.41;4936187;29;20035;-79
2021/01/28 09:16:14;;;;;;;23.77;13.43;;;;;;;4.08;100.00;99194.16;4954615;28;20039;-81
2021/01/28 09:18:51;;;;;;;19.75;12.40;;;;;;;4.09;100.00;99191.47;4928009;29;20067;-82
2021/01/28 09:21:35;;;;;;;20.65;13.00;;;;;;;4.10;100.00;99192.31;4954131;29;20035;-81
2021/01/28 09:24:20;;;;;;;24.17;13.18;;;;;;;4.11;100.00;99192.25;4949975;28;20035;-81
2021/01/28 09:27:05;;;;;;;20.80;12.73;;;;;;;4.13;100.00;99194.81;4954734;28;20032;-82
2021/01/28 09:29:39;;;;;;;22.83;13.57;;;;;;;4.16;100.00;99194.69;4948867;29;20047;-82
2021/01/28 09:32:31;;;;;;;19.98;13.20;;;;;;;4.19;100.00;99189.34;4947049;29;20063;-81
2021/01/28 09:35:15;;;;;;;20.13;12.57;;;;;;;4.25;100.00;99189.06;4942333;29;20052;-81
2021/01/28 09:38:00;;;;;;;19.00;12.20;;;;;;;4.31;100.00;99178.34;4932985;29;20040;-81
2021/01/28 09:40:32;;;;;;;20.90;12.90;;;;;;;4.29;100.00;99153.97;4946286;29;20074;-82
2021/01/28 09:43:26;;;;;;;21.88;12.73;;;;;;;4.34;100.00;99148.56;4942136;29;20057;-80
2021/01/28 09:46:08;;;;;;;20.67;11.98;;;;;;;4.37;100.00;99149.28;4949963;29;20051;-79
2021/01/28 09:48:36;;;;;;;19.08;12.00;;;;;;;4.40;100.00;99149.16;4925499;29;20063;-81
2021/01/28 09:51:05;;;;;;;21.98;12.77;;;;;;;4.41;100.00;99140.34;4924322;29;20047;-82
2021/01/28 09:53:32;;;;;;;17.67;11.48;;;;;;;4.45;100.00;99133.22;4941533;29;20047;-80
2021/01/28 09:56:01;;;;;;;18.52;12.10;;;;;;;4.50;100.00;99134.75;4940134;29;20190;-83
2021/01/28 09:58:27;;;;;;;17.08;11.38;;;;;;;4.55;100.00;99121.44;4936887;29;20078;-83
2021/01/28 10:00:53;;;;;;;16.83;10.63;;;;;;;4.58;100.00;99122.16;4942290;29;20055;-82
2021/01/28 10:03:21;;;;;;;17.05;10.02;;;;;;;4.56;100.00;99121.34;4941116;29;20056;-83
2021/01/28 10:05:48;;;;;;;15.23;10.27;;;;;;;4.56;100.00;99107.44;4947615;29;20129;-82
2021/01/28 10:08:17;;;;;;;13.95;10.18;;;;;;;4.54;100.00;99102.25;4927571;29;20051;-83
2021/01/28 10:10:45;;;;;;;11.48;9.00;;;;;;;4.54;100.00;99097.00;4942370;29;20052;-83
2021/01/28 10:13:17;;;;;;;15.98;10.55;;;;;;;4.52;100.00;99093.59;4944317;29;20059;-83
2021/01/28 10:15:45;;;;;;;14.48;10.00;;;;;;;4.51;100.00;99081.41;4944635;29;20079;-83
2021/01/28 10:18:12;;;;;;;14.98;9.93;;;;;;;4.49;100.00;99080.63;4947454;29;20043;-83
2021/01/28 10:20:43;;;;;;;13.63;9.57;;;;;;;4.53;100.00;99066.47;4953671;28;20047;-83
2021/01/28 10:23:10;;;;;;;13.23;8.63;;;;;;;4.60;100.00;99053.91;4956278;29;20062;-82
2021/01/28 10:25:37;;;;;;;13.88;9.60;;;;;;;4.62;100.00;99057.34;4942926;29;20052;-82
2021/01/28 10:28:04;;;;;;;12.85;8.82;;;;;;;4.64;100.00;99049.41;4947028;29;20061;-82
2021/01/28 10:30:31;;;;;;;13.45;8.90;;;;;;;4.66;100.00;99044.94;4953435;29;20442;-83
2021/01/28 10:32:59;;;;;;;26.85;14.95;;;;;;;4.68;100.00;99043.09;4940578;29;20036;-82
2021/01/28 10:35:28;;;;;;;12.93;8.93;;;;;;;4.66;100.00;99039.69;4954156;29;20066;-82
2021/01/28 10:37:56;;;;;;;13.70;9.00;;;;;;;4.69;100.00;99034.31;4946708;29;20043;-82
2021/01/28 10:40:24;;;;;;;11.55;8.43;;;;;;;4.73;100.00;99025.38;4934390;29;20112;-82
2021/01/28 10:42:55;;;;;;;13.38;8.98;;;;;;;4.75;100.00;99026.16;4954087;29;20047;-82
2021/01/28 10:45:33;;;;;;;12.02;8.63;;;;;;;4.77;100.00;99021.69;4952489;29;20055;-83
2021/01/28 10:48:00;;;;;;;12.98;7.50;;;;;;;4.83;100.00;99019.66;4952162;29;20126;-82
2021/01/28 10:50:31;;;;;;;10.02;7.63;;;;;;;4.81;100.00;99004.91;4955526;29;20051;-82
2021/01/28 10:52:59;;;;;;;11.10;8.23;;;;;;;4.79;100.00;98997.13;4953459;29;20054;-82
2021/01/28 10:55:29;;;;;;;12.57;8.35;;;;;;;4.85;100.00;98993.38;4950688;29;20063;-82
2021/01/28 10:57:56;;;;;;;12.73;8.93;;;;;;;4.82;100.00;98981.25;4950313;29;20166;-81
2021/01/28 11:00:24;;;;;;;14.55;9.52;;;;;;;4.85;100.00;98981.13;4945870;29;20123;-83
2021/01/28 11:02:54;;;;;;;14.88;9.05;;;;;;;4.89;100.00;98976.56;4950957;29;20058;-82
2021/01/28 11:05:28;;;;;;;12.70;8.43;;;;;;;4.96;100.00;98975.34;4940074;29;20071;-83
2021/01/28 11:07:55;;;;;;;13.02;8.65;;;;;;;5.01;100.00;98978.63;4958266;28;20047;-83
2021/01/28 11:10:23;;;;;;;12.38;8.68;;;;;;;5.05;100.00;98981.94;4940975;29;20039;-82
2021/01/28 11:12:53;;;;;;;13.25;8.77;;;;;;;5.06;100.00;98978.38;4950920;29;20051;-82
2021/01/28 11:15:21;;;;;;;11.65;8.68;;;;;;;5.09;100.00;98980.88;4956291;29;20024;-83
2021/01/28 11:17:48;;;;;;;10.93;8.35;;;;;;;5.08;100.00;98969.53;4940457;29;20111;-83
2021/01/28 11:20:15;;;;;;;15.88;9.43;;;;;;;5.10;100.00;98956.34;4935880;29;20516;-81
2021/01/28 11:22:42;;;;;;;12.63;9.13;;;;;;;5.08;100.00;98956.41;4944791;29;20043;-83
2021/01/28 11:25:12;;;;;;;12.00;8.93;;;;;;;5.13;100.00;98957.03;4925442;29;20052;-83
2021/01/28 11:27:42;;;;;;;12.25;8.93;;;;;;;5.11;100.00;98948.41;4939609;29;20766;-83
2021/01/28 11:30:12;;;;;;;14.10;10.05;;;;;;;5.11;100.00;98951.03;4943346;29;20043;-83
2021/01/28 11:32:40;;;;;;;14.32;9.57;;;;;;;5.11;100.00;98945.78;4942523;29;20481;-83
2021/01/28 11:35:07;;;;;;;12.00;9.20;;;;;;;5.10;100.00;98936.19;4946247;29;22073;-83
2021/01/28 11:37:34;;;;;;;14.30;10.13;;;;;;;5.09;100.00;98934.50;4944621;29;20067;-82
2021/01/28 11:40:02;;;;;;;14.52;10.32;;;;;;;5.06;100.00;98926.75;4929160;29;20071;-82
2021/01/28 11:42:28;;;;;;;14.68;10.18;;;;;;;5.14;100.00;98935.13;4941500;29;20043;-83
2021/01/28 11:44:55;;;;;;;15.18;9.65;;;;;;;5.14;100.00;98923.78;4928196;29;20063;-82
2021/01/28 11:47:24;;;;;;;13.38;9.80;;;;;;;5.14;100.00;98916.78;4943309;29;20066;-82
2021/01/28 11:49:52;;;;;;;19.38;13.93;;;;;;;5.21;100.00;98909.44;4945219;29;20052;-82